Time;durP1;ratioP1;P1;durP2;ratioP2;P2;SDS_P1;SDS_P2;PMS_P1;PMS_P2;Temp;Humidity;BMP_temperature;BMP_pressure;BME280_temperature;BME280_humidity;BME280_pressure;Samples;Min_cycle;Max_cycle;Signal;HPM_P1;HPM_P2
2022/10/26 00:00:47;;;;;;;4.13;2.55;;;;;;;;;;4903660;29;20147;-69
2022/10/26 00:03:12;;;;;;;3.33;2.40;;;;;;;;;;4904786;29;20227;-69
2022/10/26 00:05:38;;;;;;;5.25;2.50;;;;;;;;;;4904512;28;20071;-68
2022/10/26 00:08:05;;;;;;;2.80;2.30;;;;;;;;;;4903563;29;20055;-70
2022/10/26 00:10:33;;;;;;;6.22;2.55;;;;;;;;;;4903563;28;20044;-70
2022/10/26 00:12:59;;;;;;;8.70;2.70;;;;;;;;;;4904610;29;20048;-69
2022/10/26 00:15:24;;;;;;;3.00;2.45;;;;;;;;;;4904179;29;20036;-69
2022/10/26 00:17:50;;;;;;;4.75;2.38;;;;;;;;;;4903933;28;20151;-69
2022/10/26 00:20:16;;;;;;;5.13;2.40;;;;;;;;;;4903828;29;20081;-69
2022/10/26 00:22:41;;;;;;;4.00;2.33;;;;;;;;;;4904044;28;20103;-70
2022/10/26 00:25:07;;;;;;;3.83;2.20;;;;;;;;;;4904640;29;20036;-69
2022/10/26 00:27:33;;;;;;;4.85;2.33;;;;;;;;;;4904170;29;20044;-69
2022/10/26 00:30:00;;;;;;;7.25;2.42;;;;;;;;;;4902510;29;20058;-69
2022/10/26 00:32:25;;;;;;;4.00;2.03;;;;;;;;;;4903348;29;20044;-69
2022/10/26 00:34:51;;;;;;;2.65;2.10;;;;;;;;;;4904306;28;20051;-69
2022/10/26 00:37:16;;;;;;;4.30;2.53;;;;;;;;;;4902587;29;20054;-69
2022/10/26 00:39:42;;;;;;;2.10;1.90;;;;;;;;;;4904044;28;20504;-69
2022/10/26 00:42:11;;;;;;;2.47;1.67;;;;;;;;;;4903969;29;20056;-69
2022/10/26 00:44:46;;;;;;;9.27;2.92;;;;;;;;;;4903871;29;20580;-69
2022/10/26 00:47:34;;;;;;;6.90;2.25;;;;;;;;;;4904014;28;20484;-69
2022/10/26 00:50:07;;;;;;;3.65;1.85;;;;;;;;;;4903626;29;20063;-69
2022/10/26 00:52:33;;;;;;;6.18;2.08;;;;;;;;;;4903578;28;20044;-69
2022/10/26 00:54:59;;;;;;;3.47;1.98;;;;;;;;;;4904204;29;20083;-69
2022/10/26 00:57:24;;;;;;;2.97;1.88;;;;;;;;;;4903754;29;20465;-68
2022/10/26 00:59:53;;;;;;;4.90;1.90;;;;;;;;;;4903708;28;20052;-69
2022/10/26 01:02:19;;;;;;;3.88;1.83;;;;;;;;;;4902662;29;20127;-69
2022/10/26 01:04:46;;;;;;;2.05;1.85;;;;;;;;;;4903324;28;20139;-69
2022/10/26 01:07:12;;;;;;;5.57;1.88;;;;;;;;;;4903913;29;20044;-69
2022/10/26 01:09:38;;;;;;;2.83;1.85;;;;;;;;;;4904335;29;20111;-69
2022/10/26 01:12:04;;;;;;;7.63;1.90;;;;;;;;;;4905124;28;20155;-69
2022/10/26 01:14:30;;;;;;;2.38;1.90;;;;;;;;;;4906750;29;20725;-69
2022/10/26 01:17:02;;;;;;;4.82;1.90;;;;;;;;;;4905168;29;20107;-69
2022/10/26 01:20:12;;;;;;;4.93;2.15;;;;;;;;;;4901688;29;20107;-69
2022/10/26 01:22:47;;;;;;;6.38;1.90;;;;;;;;;;4916200;29;20048;-69
2022/10/26 01:25:31;;;;;;;5.95;2.03;;;;;;;;;;4903831;29;20047;-69
2022/10/26 01:27:58;;;;;;;4.78;1.80;;;;;;;;;;4905216;28;20098;-69
2022/10/26 01:30:29;;;;;;;3.50;1.75;;;;;;;;;;4906304;29;20100;-69
2022/10/26 01:33:35;;;;;;;2.13;1.65;;;;;;;;;;4907269;28;20077;-69
2022/10/26 01:36:42;;;;;;;2.58;1.83;;;;;;;;;;4920776;29;20054;-69
2022/10/26 01:39:20;;;;;;;2.55;1.70;;;;;;;;;;4890618;28;20075;-69
2022/10/26 01:41:45;;;;;;;2.15;1.83;;;;;;;;;;4906219;29;20187;-69
2022/10/26 01:44:23;;;;;;;2.22;1.77;;;;;;;;;;4907021;28;20139;-70
2022/10/26 01:46:51;;;;;;;1.77;1.67;;;;;;;;;;4905339;29;20119;-70
2022/10/26 01:49:21;;;;;;;2.22;2.03;;;;;;;;;;4906811;29;20712;-69
2022/10/26 01:51:48;;;;;;;2.88;2.03;;;;;;;;;;4904167;29;20548;-69
2022/10/26 01:54:14;;;;;;;3.85;2.05;;;;;;;;;;4906693;29;20050;-70
2022/10/26 01:56:43;;;;;;;2.22;1.83;;;;;;;;;;4906613;28;20420;-69
2022/10/26 01:59:27;;;;;;;3.72;1.95;;;;;;;;;;4906691;29;20052;-68
2022/10/26 02:02:13;;;;;;;6.25;2.30;;;;;;;;;;4905171;28;20082;-69
2022/10/26 02:05:08;;;;;;;2.53;2.10;;;;;;;;;;4921034;29;20052;-69
2022/10/26 02:08:12;;;;;;;4.68;2.17;;;;;;;;;;4906320;29;20052;-70
2022/10/26 02:11:04;;;;;;;4.28;2.45;;;;;;;;;;4915907;29;20048;-70
2022/10/26 02:13:51;;;;;;;2.70;2.03;;;;;;;;;;4904995;29;20443;-70
2022/10/26 02:16:57;;;;;;;2.55;2.30;;;;;;;;;;4918627;29;20095;-70
2022/10/26 02:19:35;;;;;;;4.63;2.42;;;;;;;;;;4908069;29;20052;-69
2022/10/26 02:22:20;;;;;;;5.72;2.40;;;;;;;;;;4905445;28;20040;-70
2022/10/26 02:24:48;;;;;;;5.90;2.72;;;;;;;;;;4903918;29;20052;-70
2022/10/26 02:27:19;;;;;;;4.00;2.55;;;;;;;;;;4904228;29;20048;-70
2022/10/26 02:29:47;;;;;;;5.00;2.58;;;;;;;;;;4905782;29;20055;-70
2022/10/26 02:32:13;;;;;;;6.78;2.17;;;;;;;;;;4905895;28;20059;-70
2022/10/26 02:34:43;;;;;;;3.60;1.95;;;;;;;;;;4904335;29;20088;-70
2022/10/26 02:37:10;;;;;;;2.20;2.00;;;;;;;;;;4905687;29;20063;-70
2022/10/26 02:39:38;;;;;;;4.32;2.28;;;;;;;;;;4905951;28;20121;-70
2022/10/26 02:42:05;;;;;;;5.10;2.28;;;;;;;;;;4903779;29;20520;-70
2022/10/26 02:44:43;;;;;;;4.35;2.40;;;;;;;;;;4905893;28;20060;-70
2022/10/26 02:47:09;;;;;;;5.93;2.08;;;;;;;;;;4904947;29;20106;-70
2022/10/26 02:49:35;;;;;;;3.00;2.10;;;;;;;;;;4905190;29;20064;-70
2022/10/26 02:52:08;;;;;;;3.25;1.70;;;;;;;;;;4903808;29;20064;-70
2022/10/26 02:55:24;;;;;;;5.07;1.80;;;;;;;;;;4905680;29;20116;-69
2022/10/26 02:58:01;;;;;;;4.07;2.00;;;;;;;;;;4920448;28;20075;-70
2022/10/26 03:00:27;;;;;;;3.05;1.75;;;;;;;;;;4906072;29;20905;-70
2022/10/26 03:02:56;;;;;;;1.90;1.77;;;;;;;;;;4911575;28;20066;-70
2022/10/26 03:05:27;;;;;;;4.32;2.35;;;;;;;;;;4905552;29;20068;-70
2022/10/26 03:07:54;;;;;;;4.60;1.92;;;;;;;;;;4903865;28;20095;-70
2022/10/26 03:10:20;;;;;;;5.30;2.10;;;;;;;;;;4905689;29;20058;-70
2022/10/26 03:12:45;;;;;;;7.85;2.33;;;;;;;;;;4905435;29;20453;-70
2022/10/26 03:15:11;;;;;;;2.72;2.15;;;;;;;;;;4904371;29;20052;-70
2022/10/26 03:17:36;;;;;;;6.97;2.60;;;;;;;;;;4905123;29;20508;-70
2022/10/26 03:20:03;;;;;;;7.63;1.90;;;;;;;;;;4901451;28;20047;-69
2022/10/26 03:22:28;;;;;;;2.75;1.98;;;;;;;;;;4905045;29;20857;-68
2022/10/26 03:24:54;;;;;;;1.88;1.70;;;;;;;;;;4904917;29;20151;-69
2022/10/26 03:27:19;;;;;;;1.80;1.70;;;;;;;;;;4904869;28;20123;-69
2022/10/26 03:29:44;;;;;;;4.75;1.80;;;;;;;;;;4903653;29;20107;-69
2022/10/26 03:32:10;;;;;;;1.80;1.70;;;;;;;;;;4904875;28;20056;-69
2022/10/26 03:34:35;;;;;;;2.95;1.90;;;;;;;;;;4902583;29;20051;-69
2022/10/26 03:37:01;;;;;;;3.97;1.80;;;;;;;;;;4904408;29;20390;-68
2022/10/26 03:39:26;;;;;;;4.63;2.10;;;;;;;;;;4904953;28;20058;-69
2022/10/26 03:41:52;;;;;;;3.40;2.25;;;;;;;;;;4903679;29;20044;-69
2022/10/26 03:44:17;;;;;;;6.93;2.20;;;;;;;;;;4904329;28;20048;-69
2022/10/26 03:46:43;;;;;;;3.72;2.17;;;;;;;;;;4904803;29;20089;-68
2022/10/26 03:49:08;;;;;;;2.58;1.73;;;;;;;;;;4904573;29;20047;-68
2022/10/26 03:51:34;;;;;;;5.90;3.70;;;;;;;;;;4918568;28;20052;-68
2022/10/26 03:53:59;;;;;;;2.88;2.08;;;;;;;;;;4902494;29;20107;-69
2022/10/26 03:56:25;;;;;;;3.95;2.15;;;;;;;;;;4904044;28;20062;-69
2022/10/26 03:58:51;;;;;;;2.58;2.00;;;;;;;;;;4903823;29;20133;-69
2022/10/26 04:01:16;;;;;;;3.03;1.77;;;;;;;;;;4904072;29;20055;-70
2022/10/26 04:03:41;;;;;;;2.95;2.15;;;;;;;;;;4902223;28;20052;-70
2022/10/26 04:06:07;;;;;;;3.88;2.33;;;;;;;;;;4903737;29;20048;-70
2022/10/26 04:08:32;;;;;;;4.18;2.05;;;;;;;;;;4903404;28;20051;-70
2022/10/26 04:10:58;;;;;;;2.85;2.00;;;;;;;;;;4917815;29;20052;-70
2022/10/26 04:13:23;;;;;;;2.30;1.67;;;;;;;;;;4902865;29;20043;-71
2022/10/26 04:15:49;;;;;;;4.15;1.70;;;;;;;;;;4902655;28;20048;-71
2022/10/26 04:18:15;;;;;;;1.85;1.70;;;;;;;;;;4901965;29;20128;-70
2022/10/26 04:20:41;;;;;;;2.42;1.52;;;;;;;;;;4903495;28;20468;-70
2022/10/26 04:23:10;;;;;;;3.42;1.45;;;;;;;;;;4916690;29;20067;-70
2022/10/26 04:25:36;;;;;;;2.28;1.75;;;;;;;;;;4901394;29;20048;-70
2022/10/26 04:28:03;;;;;;;4.85;1.73;;;;;;;;;;4902051;28;20120;-70
2022/10/26 04:30:29;;;;;;;1.88;1.38;;;;;;;;;;4902448;29;20147;-70
2022/10/26 04:32:55;;;;;;;1.83;1.70;;;;;;;;;;4903226;28;20048;-70
2022/10/26 04:35:20;;;;;;;7.05;1.95;;;;;;;;;;4902223;29;20056;-71
2022/10/26 04:37:46;;;;;;;4.57;1.95;;;;;;;;;;4902403;28;20048;-70
2022/10/26 04:40:12;;;;;;;2.60;2.10;;;;;;;;;;4903168;29;20143;-71
2022/10/26 04:42:45;;;;;;;2.95;1.90;;;;;;;;;;4903520;29;20048;-70
2022/10/26 04:45:12;;;;;;;3.70;2.25;;;;;;;;;;4903134;28;20504;-69
2022/10/26 04:47:38;;;;;;;5.53;2.05;;;;;;;;;;4905494;29;20509;-71
2022/10/26 04:50:05;;;;;;;3.47;2.50;;;;;;;;;;4905685;28;20666;-69
2022/10/26 04:52:30;;;;;;;4.10;2.28;;;;;;;;;;4907699;29;20086;-70
2022/10/26 04:54:55;;;;;;;3.70;1.70;;;;;;;;;;4906711;29;20139;-70
2022/10/26 04:57:21;;;;;;;5.60;2.03;;;;;;;;;;4905902;28;20060;-70
2022/10/26 04:59:46;;;;;;;5.07;2.47;;;;;;;;;;4905708;29;20119;-70
2022/10/26 05:02:12;;;;;;;3.50;1.98;;;;;;;;;;4905316;29;20063;-69
2022/10/26 05:04:37;;;;;;;2.85;2.20;;;;;;;;;;4899055;29;20236;-70
2022/10/26 05:07:03;;;;;;;2.42;2.05;;;;;;;;;;4906275;29;20040;-69
2022/10/26 05:09:29;;;;;;;5.03;2.33;;;;;;;;;;4905201;28;20056;-70
2022/10/26 05:11:54;;;;;;;3.00;2.60;;;;;;;;;;4905470;29;20048;-72
2022/10/26 05:14:19;;;;;;;2.33;2.13;;;;;;;;;;4905875;28;20052;-72
2022/10/26 05:16:45;;;;;;;4.13;2.35;;;;;;;;;;4905386;29;20051;-72
2022/10/26 05:19:10;;;;;;;5.53;2.90;;;;;;;;;;4903490;29;20120;-71
2022/10/26 05:21:36;;;;;;;7.32;2.50;;;;;;;;;;4904511;29;20044;-72
2022/10/26 05:24:01;;;;;;;2.38;2.17;;;;;;;;;;4904455;29;20083;-72
2022/10/26 05:26:27;;;;;;;3.10;2.30;;;;;;;;;;4905807;28;20056;-72
2022/10/26 05:28:52;;;;;;;5.30;1.95;;;;;;;;;;4905117;29;20408;-72
2022/10/26 05:31:19;;;;;;;2.88;2.38;;;;;;;;;;4904264;29;20078;-71
2022/10/26 05:33:50;;;;;;;2.83;2.33;;;;;;;;;;4904838;28;20048;-71
2022/10/26 05:36:17;;;;;;;3.97;1.97;;;;;;;;;;4907605;29;20483;-71
2022/10/26 05:38:42;;;;;;;2.72;2.17;;;;;;;;;;4905272;29;20288;-71
2022/10/26 05:41:07;;;;;;;12.63;2.97;;;;;;;;;;4906126;28;20051;-71
2022/10/26 05:43:33;;;;;;;4.60;1.83;;;;;;;;;;4906432;29;20095;-71
2022/10/26 05:45:58;;;;;;;5.65;2.13;;;;;;;;;;4906159;28;20059;-71
2022/10/26 05:48:24;;;;;;;3.60;2.20;;;;;;;;;;4906636;29;20079;-72
2022/10/26 05:50:49;;;;;;;2.10;1.85;;;;;;;;;;4904855;29;20044;-70
2022/10/26 05:53:15;;;;;;;2.35;1.90;;;;;;;;;;4905078;28;20050;-69
2022/10/26 05:55:41;;;;;;;4.47;2.00;;;;;;;;;;4906833;29;20054;-70
2022/10/26 05:58:10;;;;;;;4.55;2.58;;;;;;;;;;4888870;29;20339;-71
2022/10/26 06:00:41;;;;;;;5.68;2.60;;;;;;;;;;4905528;29;20059;-71
2022/10/26 06:03:31;;;;;;;5.70;2.38;;;;;;;;;;4904323;29;20123;-71
2022/10/26 06:05:58;;;;;;;2.50;2.30;;;;;;;;;;4904013;28;20044;-71
2022/10/26 06:08:26;;;;;;;5.35;3.20;;;;;;;;;;4904033;29;20416;-72
2022/10/26 06:10:52;;;;;;;10.05;3.58;;;;;;;;;;4902804;29;20055;-72
2022/10/26 06:13:18;;;;;;;6.63;2.72;;;;;;;;;;4904453;29;20059;-71
2022/10/26 06:16:21;;;;;;;4.32;1.92;;;;;;;;;;4917164;28;20048;-71
2022/10/26 06:19:11;;;;;;;3.90;1.20;;;;;;;;;;4904006;29;20077;-71
2022/10/26 06:22:05;;;;;;;1.30;1.20;;;;;;;;;;4906118;29;20036;-72
2022/10/26 06:24:40;;;;;;;4.88;1.33;;;;;;;;;;4918933;29;20062;-71
2022/10/26 06:27:33;;;;;;;1.60;1.15;;;;;;;;;;4905258;29;20058;-73
2022/10/26 06:30:09;;;;;;;1.45;1.08;;;;;;;;;;4904921;28;20135;-71
2022/10/26 06:32:35;;;;;;;6.22;1.40;;;;;;;;;;4919663;29;20059;-71
2022/10/26 06:35:33;;;;;;;4.53;1.77;;;;;;;;;;4905642;28;20063;-71
2022/10/26 06:38:03;;;;;;;5.90;2.00;;;;;;;;;;4918368;29;20054;-72
2022/10/26 06:40:32;;;;;;;5.25;2.22;;;;;;;;;;4905875;28;20614;-70
2022/10/26 06:42:59;;;;;;;3.10;2.03;;;;;;;;;;4905658;29;20139;-71
2022/10/26 06:45:24;;;;;;;3.95;2.05;;;;;;;;;;4904937;29;20078;-69
2022/10/26 06:48:10;;;;;;;1.90;1.50;;;;;;;;;;4918599;28;20504;-70
2022/10/26 06:50:38;;;;;;;4.63;1.50;;;;;;;;;;4904857;29;20414;-69
2022/10/26 06:53:22;;;;;;;4.63;2.03;;;;;;;;;;4905120;28;20048;-70
2022/10/26 06:55:49;;;;;;;3.67;2.03;;;;;;;;;;4904315;29;20838;-71
2022/10/26 06:58:18;;;;;;;5.57;1.80;;;;;;;;;;4904177;28;20524;-69
2022/10/26 07:00:44;;;;;;;3.67;1.70;;;;;;;;;;4904436;29;20127;-72
2022/10/26 07:03:10;;;;;;;3.72;2.22;;;;;;;;;;4903617;29;20048;-70
2022/10/26 07:05:35;;;;;;;6.97;2.15;;;;;;;;;;4904521;29;20629;-71
2022/10/26 07:08:01;;;;;;;5.18;1.55;;;;;;;;;;4904274;28;20051;-70
2022/10/26 07:10:26;;;;;;;3.85;1.80;;;;;;;;;;4901799;29;20044;-71
2022/10/26 07:12:52;;;;;;;2.20;1.40;;;;;;;;;;4904305;29;20143;-71
2022/10/26 07:15:17;;;;;;;3.78;1.88;;;;;;;;;;4904128;28;20048;-71
2022/10/26 07:17:44;;;;;;;5.75;1.88;;;;;;;;;;4903660;29;20036;-71
2022/10/26 07:20:11;;;;;;;5.65;1.65;;;;;;;;;;4903733;28;20449;-71
2022/10/26 07:22:36;;;;;;;5.22;1.58;;;;;;;;;;4903987;29;20047;-71
2022/10/26 07:25:02;;;;;;;3.15;1.92;;;;;;;;;;4904870;29;20044;-71
2022/10/26 07:27:28;;;;;;;5.07;2.10;;;;;;;;;;4904118;29;20099;-71
2022/10/26 07:29:53;;;;;;;5.00;1.52;;;;;;;;;;4902948;28;20060;-71
2022/10/26 07:32:18;;;;;;;2.35;1.45;;;;;;;;;;4903288;29;20040;-71
2022/10/26 07:34:44;;;;;;;3.70;1.67;;;;;;;;;;4903620;29;20485;-71
2022/10/26 07:37:09;;;;;;;2.40;1.55;;;;;;;;;;4904797;28;20055;-71
2022/10/26 07:39:35;;;;;;;9.27;1.63;;;;;;;;;;4905476;29;20044;-72
2022/10/26 07:42:00;;;;;;;7.53;1.50;;;;;;;;;;4902550;28;20164;-71
2022/10/26 07:44:26;;;;;;;5.20;1.80;;;;;;;;;;4903990;29;20040;-71
2022/10/26 07:46:51;;;;;;;3.85;2.28;;;;;;;;;;4903726;29;20556;-71
2022/10/26 07:49:17;;;;;;;6.72;2.63;;;;;;;;;;4902663;29;20493;-71
2022/10/26 07:51:43;;;;;;;6.05;2.28;;;;;;;;;;4904032;29;20052;-70
2022/10/26 07:54:08;;;;;;;7.47;1.92;;;;;;;;;;4899456;28;20048;-71
2022/10/26 07:56:34;;;;;;;3.95;2.25;;;;;;;;;;4900665;29;20115;-73
2022/10/26 07:58:59;;;;;;;2.78;2.22;;;;;;;;;;4898192;29;20106;-73
2022/10/26 08:01:25;;;;;;;4.65;2.38;;;;;;;;;;4900990;28;20048;-74
2022/10/26 08:03:54;;;;;;;4.43;2.30;;;;;;;;;;4899794;29;20044;-73
2022/10/26 08:06:21;;;;;;;3.10;2.13;;;;;;;;;;4893893;28;20527;-73
2022/10/26 08:08:47;;;;;;;3.65;2.10;;;;;;;;;;4900018;29;20052;-72
2022/10/26 08:11:13;;;;;;;9.60;2.60;;;;;;;;;;4901759;29;20043;-72
2022/10/26 08:13:38;;;;;;;2.97;2.00;;;;;;;;;;4897728;29;20040;-72
2022/10/26 08:16:05;;;;;;;3.65;1.95;;;;;;;;;;4900957;29;20078;-71
2022/10/26 08:18:31;;;;;;;5.55;2.17;;;;;;;;;;4901329;28;20441;-70
2022/10/26 08:21:05;;;;;;;7.05;2.35;;;;;;;;;;4902120;29;20047;-72
2022/10/26 08:23:31;;;;;;;2.80;2.00;;;;;;;;;;4904396;29;20052;-71
2022/10/26 08:26:01;;;;;;;5.75;2.08;;;;;;;;;;4920282;28;20048;-71
2022/10/26 08:28:27;;;;;;;2.85;2.20;;;;;;;;;;4905324;29;20067;-72
2022/10/26 08:30:53;;;;;;;7.93;2.20;;;;;;;;;;4911791;28;20093;-70
2022/10/26 08:33:19;;;;;;;3.90;2.25;;;;;;;;;;4902793;29;20518;-69
2022/10/26 08:35:44;;;;;;;3.35;3.03;;;;;;;;;;4903300;28;20059;-73
2022/10/26 08:38:10;;;;;;;2.65;1.83;;;;;;;;;;4900282;29;20044;-70
2022/10/26 08:40:38;;;;;;;3.50;1.95;;;;;;;;;;4898036;29;20405;-70
2022/10/26 08:43:18;;;;;;;2.10;1.70;;;;;;;;;;4900915;29;20048;-71
2022/10/26 08:45:49;;;;;;;2.30;1.73;;;;;;;;;;4899077;29;20087;-69
2022/10/26 08:48:18;;;;;;;12.93;1.70;;;;;;;;;;4898007;29;20652;-68
2022/10/26 08:50:51;;;;;;;2.45;1.45;;;;;;;;;;4899289;29;20087;-69
2022/10/26 08:53:26;;;;;;;4.55;1.77;;;;;;;;;;4899400;29;20063;-69
2022/10/26 08:55:59;;;;;;;2.17;1.40;;;;;;;;;;4899335;29;20051;-71
2022/10/26 08:58:30;;;;;;;3.05;1.95;;;;;;;;;;4899403;29;20048;-69
2022/10/26 09:00:57;;;;;;;2.87;1.53;;;;;;;;;;4898772;29;20104;-69
2022/10/26 09:03:23;;;;;;;3.65;1.88;;;;;;;;;;4900819;29;20288;-69
2022/10/26 09:06:13;;;;;;;2.58;1.50;;;;;;;;;;4900679;29;20048;-70
2022/10/26 09:09:11;;;;;;;2.17;1.58;;;;;;;;;;4901856;29;20054;-72
2022/10/26 09:12:08;;;;;;;3.22;1.90;;;;;;;;;;4900250;29;20068;-70
2022/10/26 09:14:58;;;;;;;2.45;1.63;;;;;;;;;;4912671;29;20131;-72
2022/10/26 09:18:09;;;;;;;2.40;1.75;;;;;;;;;;4899554;29;20161;-70
2022/10/26 09:20:56;;;;;;;2.70;1.60;;;;;;;;;;4910572;29;20751;-70
2022/10/26 09:23:51;;;;;;;3.60;1.52;;;;;;;;;;4915847;29;20514;-70
2022/10/26 09:27:00;;;;;;;3.75;1.65;;;;;;;;;;4900303;29;20052;-70
2022/10/26 09:29:31;;;;;;;3.83;1.80;;;;;;;;;;4903130;29;20529;-70
2022/10/26 09:31:58;;;;;;;6.30;1.60;;;;;;;;;;4903068;29;20052;-70
2022/10/26 09:34:31;;;;;;;2.67;1.73;;;;;;;;;;4903662;29;20161;-70
2022/10/26 09:36:57;;;;;;;3.17;1.60;;;;;;;;;;4904261;28;20079;-70
2022/10/26 09:39:34;;;;;;;1.30;1.20;;;;;;;;;;4903822;29;20788;-69
2022/10/26 09:42:28;;;;;;;2.97;1.60;;;;;;;;;;4903774;28;20047;-70
2022/10/26 09:45:02;;;;;;;2.38;1.60;;;;;;;;;;4899957;29;20721;-69
2022/10/26 09:47:32;;;;;;;2.60;1.70;;;;;;;;;;4900339;29;20107;-70
2022/10/26 09:50:05;;;;;;;1.90;1.50;;;;;;;;;;4899814;28;20568;-70
2022/10/26 09:52:31;;;;;;;2.13;1.25;;;;;;;;;;4900712;29;20506;-70
2022/10/26 09:54:56;;;;;;;1.90;1.42;;;;;;;;;;4900097;28;20130;-69
2022/10/26 09:57:22;;;;;;;2.03;1.40;;;;;;;;;;4900515;29;20044;-70
2022/10/26 09:59:49;;;;;;;2.85;1.30;;;;;;;;;;4899183;28;20048;-70
2022/10/26 10:02:35;;;;;;;1.60;1.50;;;;;;;;;;4899381;29;20047;-70
2022/10/26 10:05:01;;;;;;;3.65;1.40;;;;;;;;;;4899908;29;20051;-70
2022/10/26 10:07:27;;;;;;;1.88;1.60;;;;;;;;;;4899140;29;20036;-70
2022/10/26 10:10:14;;;;;;;1.48;1.35;;;;;;;;;;4898639;29;20424;-70
2022/10/26 10:12:40;;;;;;;1.92;1.10;;;;;;;;;;4900004;28;20095;-70
2022/10/26 10:15:17;;;;;;;3.13;1.27;;;;;;;;;;4899684;29;20238;-70
2022/10/26 10:17:48;;;;;;;3.70;1.10;;;;;;;;;;4894911;29;20052;-70
2022/10/26 10:20:18;;;;;;;4.18;1.50;;;;;;;;;;4912543;29;20052;-70
2022/10/26 10:23:02;;;;;;;4.43;1.20;;;;;;;;;;4899407;29;20067;-70
2022/10/26 10:25:32;;;;;;;1.92;1.10;;;;;;;;;;4898893;29;20699;-70
2022/10/26 10:27:58;;;;;;;2.13;1.23;;;;;;;;;;4898967;29;20048;-71
2022/10/26 10:30:31;;;;;;;2.45;1.13;;;;;;;;;;4898057;29;20162;-70
2022/10/26 10:33:10;;;;;;;1.13;1.02;;;;;;;;;;4900077;29;20532;-71
2022/10/26 10:35:46;;;;;;;3.95;1.60;;;;;;;;;;4899168;29;20044;-70
2022/10/26 10:38:18;;;;;;;2.05;1.38;;;;;;;;;;4898740;29;20052;-70
2022/10/26 10:41:02;;;;;;;5.90;1.52;;;;;;;;;;4898408;29;20092;-71
2022/10/26 10:43:27;;;;;;;2.90;1.50;;;;;;;;;;4898761;29;20048;-70
2022/10/26 10:45:56;;;;;;;4.35;1.38;;;;;;;;;;4901943;29;20050;-70
2022/10/26 10:48:26;;;;;;;1.75;1.27;;;;;;;;;;4916868;29;20052;-69
2022/10/26 10:51:03;;;;;;;3.97;1.80;;;;;;;;;;4902028;29;20052;-70
2022/10/26 10:53:43;;;;;;;4.28;1.73;;;;;;;;;;4903278;29;20075;-71
2022/10/26 10:56:28;;;;;;;2.90;1.50;;;;;;;;;;4902973;28;20044;-72
2022/10/26 10:59:24;;;;;;;1.58;1.30;;;;;;;;;;4902368;29;20051;-70
2022/10/26 11:02:05;;;;;;;5.68;1.42;;;;;;;;;;4901420;28;20059;-71
2022/10/26 11:04:45;;;;;;;1.55;1.20;;;;;;;;;;4903190;29;20134;-71
2022/10/26 11:07:14;;;;;;;3.22;1.20;;;;;;;;;;4903048;28;20060;-70
2022/10/26 11:09:44;;;;;;;2.75;1.40;;;;;;;;;;4902367;29;20048;-70
2022/10/26 11:12:20;;;;;;;3.53;1.77;;;;;;;;;;4901388;28;20544;-70
2022/10/26 11:14:53;;;;;;;1.70;1.55;;;;;;;;;;4901262;29;20051;-70
2022/10/26 11:17:24;;;;;;;2.33;1.30;;;;;;;;;;4897331;29;20098;-70
2022/10/26 11:19:57;;;;;;;3.42;1.40;;;;;;;;;;4914595;28;20112;-70
2022/10/26 11:22:30;;;;;;;2.10;1.50;;;;;;;;;;4901032;29;20192;-70
2022/10/26 11:25:04;;;;;;;2.47;1.70;;;;;;;;;;4902682;29;20737;-70
2022/10/26 11:27:35;;;;;;;6.25;1.52;;;;;;;;;;4901946;28;20498;-70
2022/10/26 11:30:12;;;;;;;4.65;1.30;;;;;;;;;;4901229;29;20509;-70
2022/10/26 11:32:50;;;;;;;4.25;1.48;;;;;;;;;;4901112;28;20604;-70
2022/10/26 11:35:27;;;;;;;3.30;1.30;;;;;;;;;;4900217;29;20800;-69
2022/10/26 11:38:00;;;;;;;2.47;1.02;;;;;;;;;;4901111;28;20055;-70
2022/10/26 11:40:35;;;;;;;4.78;1.00;;;;;;;;;;4900735;29;20178;-70
2022/10/26 11:43:20;;;;;;;3.50;0.90;;;;;;;;;;4900790;29;20575;-69
2022/10/26 11:46:01;;;;;;;5.20;1.00;;;;;;;;;;4899827;28;20051;-74
2022/10/26 11:48:53;;;;;;;3.40;0.98;;;;;;;;;;4901152;29;20052;-69
2022/10/26 11:51:39;;;;;;;2.92;1.10;;;;;;;;;;4901349;28;20056;-70
2022/10/26 11:54:18;;;;;;;5.28;1.27;;;;;;;;;;4901102;29;20036;-71
2022/10/26 11:56:47;;;;;;;6.68;1.25;;;;;;;;;;4900444;28;20196;-70
2022/10/26 11:59:18;;;;;;;5.55;1.13;;;;;;;;;;4900469;29;20036;-71
2022/10/26 12:01:46;;;;;;;1.80;0.90;;;;;;;;;;4900837;29;20044;-71
2022/10/26 12:04:12;;;;;;;4.20;1.23;;;;;;;;;;4900289;29;20051;-71
2022/10/26 12:06:38;;;;;;;6.55;1.17;;;;;;;;;;4900857;29;20115;-70
2022/10/26 12:09:11;;;;;;;3.03;1.20;;;;;;;;;;4900323;28;20816;-71
2022/10/26 12:11:45;;;;;;;4.22;1.00;;;;;;;;;;4901166;29;20068;-70
2022/10/26 12:14:13;;;;;;;5.40;1.05;;;;;;;;;;4900203;28;20080;-71
2022/10/26 12:16:48;;;;;;;2.38;1.00;;;;;;;;;;4898340;29;20048;-69
2022/10/26 12:19:23;;;;;;;5.20;1.13;;;;;;;;;;4899457;29;20567;-69
2022/10/26 12:21:50;;;;;;;3.60;1.25;;;;;;;;;;4900678;28;20052;-69
2022/10/26 12:24:22;;;;;;;4.35;1.10;;;;;;;;;;4901071;29;20052;-69
2022/10/26 12:27:02;;;;;;;3.55;0.98;;;;;;;;;;4913371;28;20044;-69
2022/10/26 12:29:29;;;;;;;6.38;1.20;;;;;;;;;;4899498;29;20051;-69
2022/10/26 12:31:54;;;;;;;6.43;1.02;;;;;;;;;;4899909;29;20044;-69
2022/10/26 12:34:44;;;;;;;6.03;1.10;;;;;;;;;;4900322;29;20055;-69
2022/10/26 12:37:20;;;;;;;3.47;1.15;;;;;;;;;;4898554;29;20519;-69
2022/10/26 12:39:46;;;;;;;9.18;1.40;;;;;;;;;;4900259;28;20056;-69
2022/10/26 12:42:14;;;;;;;6.10;1.40;;;;;;;;;;4898896;29;20048;-69
2022/10/26 12:44:44;;;;;;;12.30;1.70;;;;;;;;;;4897132;28;20048;-70
2022/10/26 12:47:29;;;;;;;11.65;1.63;;;;;;;;;;4899103;29;20048;-69
2022/10/26 12:50:08;;;;;;;7.00;1.23;;;;;;;;;;4899111;29;20055;-69
2022/10/26 12:52:48;;;;;;;1.65;1.17;;;;;;;;;;4901201;29;20532;-69
2022/10/26 12:55:52;;;;;;;2.30;1.40;;;;;;;;;;4900019;28;20438;-69
2022/10/26 12:58:29;;;;;;;3.13;1.17;;;;;;;;;;4880371;29;20842;-69
2022/10/26 13:00:58;;;;;;;10.30;2.05;;;;;;;;;;4909916;29;20056;-69
2022/10/26 13:03:34;;;;;;;5.93;1.17;;;;;;;;;;4895230;28;20093;-69
2022/10/26 13:06:22;;;;;;;6.70;1.58;;;;;;;;;;4895170;29;20047;-70
2022/10/26 13:08:51;;;;;;;6.53;1.52;;;;;;;;;;4912906;28;20059;-70
2022/10/26 13:11:37;;;;;;;4.78;1.60;;;;;;;;;;4900962;29;20048;-70
2022/10/26 13:14:14;;;;;;;9.13;1.90;;;;;;;;;;4899402;28;20048;-70
2022/10/26 13:16:43;;;;;;;8.10;1.75;;;;;;;;;;4898741;29;20040;-70
2022/10/26 13:19:22;;;;;;;5.43;1.27;;;;;;;;;;4899839;29;20854;-70
2022/10/26 13:21:48;;;;;;;4.75;1.48;;;;;;;;;;4899547;28;20048;-71
2022/10/26 13:24:14;;;;;;;4.60;1.48;;;;;;;;;;4899289;29;20080;-71
2022/10/26 13:27:04;;;;;;;3.97;1.20;;;;;;;;;;4900033;28;20160;-70
2022/10/26 13:29:31;;;;;;;4.68;1.40;;;;;;;;;;4899358;29;20048;-70
2022/10/26 13:31:58;;;;;;;4.25;1.27;;;;;;;;;;4898995;28;20044;-70
2022/10/26 13:34:28;;;;;;;8.25;1.20;;;;;;;;;;4899471;29;20416;-70
2022/10/26 13:37:08;;;;;;;6.57;1.25;;;;;;;;;;4899723;29;20046;-71
2022/10/26 13:39:41;;;;;;;3.65;1.15;;;;;;;;;;4899664;28;20063;-71
2022/10/26 13:42:14;;;;;;;2.92;1.23;;;;;;;;;;4894967;29;20055;-70
2022/10/26 13:44:46;;;;;;;6.95;1.40;;;;;;;;;;4897508;28;20120;-71
2022/10/26 13:47:43;;;;;;;5.07;1.25;;;;;;;;;;4911587;29;20132;-70
2022/10/26 13:50:15;;;;;;;6.70;1.33;;;;;;;;;;4902557;28;20524;-71
2022/10/26 13:52:44;;;;;;;2.92;1.42;;;;;;;;;;4898556;29;20083;-70
2022/10/26 13:55:36;;;;;;;6.88;1.52;;;;;;;;;;4897816;29;20632;-69
2022/10/26 13:58:35;;;;;;;3.25;1.52;;;;;;;;;;4896057;28;20135;-70
2022/10/26 14:01:14;;;;;;;6.30;1.40;;;;;;;;;;4897248;29;20617;-70
2022/10/26 14:03:40;;;;;;;8.77;1.25;;;;;;;;;;4898279;29;20076;-70
2022/10/26 14:06:36;;;;;;;5.18;1.23;;;;;;;;;;4898843;29;20048;-70
2022/10/26 14:09:10;;;;;;;6.22;1.67;;;;;;;;;;4895351;28;20051;-70
2022/10/26 14:11:43;;;;;;;9.80;1.80;;;;;;;;;;4897644;29;20059;-70
2022/10/26 14:14:28;;;;;;;6.75;1.40;;;;;;;;;;4896110;28;20048;-70
2022/10/26 14:16:55;;;;;;;5.47;1.30;;;;;;;;;;4897211;29;20048;-70
2022/10/26 14:19:33;;;;;;;6.72;1.50;;;;;;;;;;4895313;29;20051;-69
2022/10/26 14:21:59;;;;;;;4.32;1.60;;;;;;;;;;4894286;29;20559;-69
2022/10/26 14:24:34;;;;;;;9.48;2.08;;;;;;;;;;4897118;29;20746;-69
2022/10/26 14:26:59;;;;;;;6.20;1.77;;;;;;;;;;4897865;29;20051;-71
2022/10/26 14:29:30;;;;;;;9.93;1.40;;;;;;;;;;4896352;28;20087;-70
2022/10/26 14:31:56;;;;;;;10.45;1.95;;;;;;;;;;4896050;29;20208;-70
2022/10/26 14:34:22;;;;;;;6.82;1.60;;;;;;;;;;4896611;28;20060;-70
2022/10/26 14:36:57;;;;;;;9.68;2.00;;;;;;;;;;4897040;29;20099;-70
2022/10/26 14:39:39;;;;;;;13.55;1.60;;;;;;;;;;4896555;29;20509;-70
2022/10/26 14:42:28;;;;;;;3.78;1.45;;;;;;;;;;4896531;28;20111;-70
2022/10/26 14:44:55;;;;;;;5.75;1.60;;;;;;;;;;4897860;29;20056;-70
2022/10/26 14:47:27;;;;;;;6.78;1.40;;;;;;;;;;4898019;28;20048;-71
2022/10/26 14:49:53;;;;;;;10.15;2.10;;;;;;;;;;4897720;29;20067;-71
2022/10/26 14:52:25;;;;;;;3.25;1.08;;;;;;;;;;4891279;29;20813;-71
2022/10/26 14:55:03;;;;;;;7.70;1.60;;;;;;;;;;4896106;29;20054;-71
2022/10/26 14:57:35;;;;;;;7.90;2.10;;;;;;;;;;4911109;29;20051;-70
2022/10/26 15:00:17;;;;;;;4.97;1.52;;;;;;;;;;4896037;28;20047;-70
2022/10/26 15:02:45;;;;;;;6.68;1.60;;;;;;;;;;4897562;29;20044;-71
2022/10/26 15:05:18;;;;;;;12.20;1.92;;;;;;;;;;4896741;28;20051;-70
2022/10/26 15:07:44;;;;;;;5.57;1.38;;;;;;;;;;4911470;29;20059;-71
2022/10/26 15:10:34;;;;;;;10.27;1.63;;;;;;;;;;4896568;29;20044;-69
2022/10/26 15:13:17;;;;;;;8.57;1.50;;;;;;;;;;4895744;29;20066;-69